Time;durP1;ratioP1;P1;durP2;ratioP2;P2;SDS_P1;SDS_P2;PMS_P1;PMS_P2;Temp;Humidity;BMP_temperature;BMP_pressure;BME280_temperature;BME280_humidity;BME280_pressure;Samples;Min_cycle;Max_cycle;Signal;HPM_P1;HPM_P2
2020/12/26 00:01:20;;;;;;;18.45;3.42;;;1.50;99.90;;;;;;5027197;28;20053;-81
2020/12/26 00:03:46;;;;;;;4.93;2.42;;;1.50;99.90;;;;;;5027107;28;20037;-79
2020/12/26 00:06:16;;;;;;;3.50;2.15;;;1.50;99.90;;;;;;5027443;28;20022;-78
2020/12/26 00:08:42;;;;;;;3.88;2.00;;;1.50;99.90;;;;;;5009363;28;20033;-81
2020/12/26 00:11:09;;;;;;;3.70;2.10;;;1.40;99.90;;;;;;5009287;28;20037;-78
2020/12/26 00:13:36;;;;;;;5.10;2.40;;;1.40;99.90;;;;;;5009523;28;20018;-80
2020/12/26 00:16:06;;;;;;;4.82;1.83;;;1.40;99.90;;;;;;5009433;28;20033;-79
2020/12/26 00:18:32;;;;;;;5.32;2.47;;;1.40;99.90;;;;;;5009469;28;20041;-79
2020/12/26 00:21:00;;;;;;;3.42;2.17;;;1.40;99.90;;;;;;5008603;28;20045;-79
2020/12/26 00:23:26;;;;;;;5.38;2.30;;;1.40;99.90;;;;;;5009234;28;20026;-80
2020/12/26 00:25:52;;;;;;;6.93;2.95;;;1.40;99.90;;;;;;5027066;28;20037;-79
2020/12/26 00:28:18;;;;;;;8.77;2.67;;;1.40;99.90;;;;;;5009131;28;20026;-78
2020/12/26 00:30:44;;;;;;;4.97;2.72;;;1.40;99.90;;;;;;5008767;28;20030;-80
2020/12/26 00:33:09;;;;;;;9.00;2.45;;;1.40;99.90;;;;;;5009270;28;20120;-79
2020/12/26 00:35:35;;;;;;;9.23;3.75;;;1.40;99.90;;;;;;5027009;28;20103;-79
2020/12/26 00:38:01;;;;;;;7.03;3.40;;;1.50;99.90;;;;;;5009235;28;20030;-80
2020/12/26 00:40:27;;;;;;;5.15;2.63;;;1.50;99.90;;;;;;5009168;28;20049;-78
2020/12/26 00:42:52;;;;;;;3.42;2.13;;;1.50;99.90;;;;;;5026516;28;20050;-79
2020/12/26 00:45:18;;;;;;;4.20;1.83;;;1.50;99.90;;;;;;5008211;28;20580;-80
2020/12/26 00:47:43;;;;;;;5.55;2.38;;;1.50;99.90;;;;;;5026573;28;20080;-77
2020/12/26 00:50:09;;;;;;;3.85;1.90;;;1.50;99.90;;;;;;5008762;28;20053;-80
2020/12/26 00:52:35;;;;;;;3.88;2.03;;;1.50;99.90;;;;;;5026184;28;20029;-78
2020/12/26 00:55:00;;;;;;;8.73;2.83;;;1.50;99.90;;;;;;5008809;28;20029;-79
2020/12/26 00:57:26;;;;;;;3.28;2.05;;;1.50;99.90;;;;;;5008299;28;20069;-78
2020/12/26 00:59:52;;;;;;;4.28;1.83;;;1.50;99.90;;;;;;5008728;28;20041;-80
2020/12/26 01:02:17;;;;;;;5.30;2.38;;;1.60;99.90;;;;;;5008664;28;20037;-79
2020/12/26 01:04:43;;;;;;;2.67;1.48;;;1.60;99.90;;;;;;5008328;28;20026;-77
2020/12/26 01:07:08;;;;;;;4.10;1.92;;;1.50;99.90;;;;;;5008639;28;20030;-79
2020/12/26 01:09:34;;;;;;;2.53;1.60;;;1.50;99.90;;;;;;5008115;28;20239;-79
2020/12/26 01:11:59;;;;;;;3.00;1.92;;;1.50;99.90;;;;;;5008090;28;20026;-77
2020/12/26 01:14:25;;;;;;;6.32;2.30;;;1.50;99.90;;;;;;5008384;28;20026;-80
2020/12/26 01:16:51;;;;;;;4.68;2.03;;;1.50;99.90;;;;;;5008619;28;20032;-78
2020/12/26 01:19:18;;;;;;;7.70;2.15;;;1.50;99.90;;;;;;5025353;28;20061;-78
2020/12/26 01:21:49;;;;;;;5.05;2.40;;;1.60;99.90;;;;;;5008343;28;20045;-77
2020/12/26 01:24:14;;;;;;;6.88;2.92;;;1.60;99.90;;;;;;5026186;28;20117;-78
2020/12/26 01:26:40;;;;;;;4.07;1.83;;;1.60;99.90;;;;;;5007870;28;20090;-78
2020/12/26 01:29:06;;;;;;;4.60;2.22;;;1.70;99.90;;;;;;5025543;28;20502;-78
2020/12/26 01:31:31;;;;;;;2.67;1.95;;;1.70;99.90;;;;;;5007520;28;20040;-80
2020/12/26 01:33:57;;;;;;;4.45;2.33;;;1.70;99.90;;;;;;5007676;28;20092;-79
2020/12/26 01:36:22;;;;;;;3.40;2.13;;;1.70;99.90;;;;;;5025914;28;20026;-79
2020/12/26 01:38:48;;;;;;;9.55;1.95;;;1.80;99.90;;;;;;5007406;28;20061;-80
2020/12/26 01:41:15;;;;;;;3.85;2.10;;;1.70;99.90;;;;;;5025479;28;20049;-78
2020/12/26 01:43:59;;;;;;;8.18;2.42;;;1.70;99.90;;;;;;5025545;28;20077;-79
2020/12/26 01:46:31;;;;;;;5.32;2.25;;;1.80;99.90;;;;;;5007532;28;20022;-80
2020/12/26 01:48:59;;;;;;;15.45;2.38;;;1.80;99.90;;;;;;5008051;28;20041;-80
2020/12/26 01:51:27;;;;;;;5.28;2.60;;;1.80;99.90;;;;;;5007959;28;20026;-80
2020/12/26 01:53:53;;;;;;;3.42;1.60;;;1.80;99.90;;;;;;5007836;28;20034;-78
2020/12/26 01:56:20;;;;;;;6.03;2.83;;;1.80;99.90;;;;;;5007816;28;20030;-79
2020/12/26 01:58:45;;;;;;;4.30;2.38;;;1.90;99.90;;;;;;5007670;28;20029;-79
2020/12/26 02:01:11;;;;;;;2.42;1.63;;;1.90;99.90;;;;;;5006995;28;20033;-79
2020/12/26 02:03:39;;;;;;;6.68;2.40;;;2.00;99.90;;;;;;5025486;28;20026;-79
2020/12/26 02:06:06;;;;;;;11.52;2.83;;;2.00;99.90;;;;;;5024874;28;20022;-80
2020/12/26 02:08:32;;;;;;;6.72;2.83;;;2.00;99.90;;;;;;5007453;28;20390;-80
2020/12/26 02:10:58;;;;;;;4.25;2.17;;;2.10;99.90;;;;;;5007274;28;20053;-78
2020/12/26 02:13:23;;;;;;;5.43;1.88;;;2.10;99.90;;;;;;5025305;28;20026;-79
2020/12/26 02:16:04;;;;;;;3.08;1.48;;;2.10;99.90;;;;;;5007172;28;20030;-81
2020/12/26 02:18:31;;;;;;;2.38;1.45;;;2.10;99.90;;;;;;5025224;28;20545;-79
2020/12/26 02:20:57;;;;;;;2.42;1.63;;;2.10;99.90;;;;;;5006983;28;20049;-78
2020/12/26 02:23:25;;;;;;;3.03;1.88;;;2.10;99.90;;;;;;5007720;28;20026;-80
2020/12/26 02:25:50;;;;;;;7.18;1.65;;;2.20;99.90;;;;;;5006902;28;20029;-78
2020/12/26 02:28:16;;;;;;;4.20;1.88;;;2.20;99.90;;;;;;5007005;28;20034;-80
2020/12/26 02:30:42;;;;;;;2.15;1.35;;;2.20;99.90;;;;;;5025215;28;20036;-79
2020/12/26 02:33:08;;;;;;;3.92;1.77;;;2.20;99.90;;;;;;5007137;28;20030;-79
2020/12/26 02:35:33;;;;;;;2.30;1.35;;;2.20;99.90;;;;;;5006900;28;20956;-79
2020/12/26 02:37:59;;;;;;;2.15;1.38;;;2.20;99.90;;;;;;5007304;28;20026;-79
2020/12/26 02:40:24;;;;;;;6.10;1.65;;;2.20;99.90;;;;;;5007084;28;20038;-79
2020/12/26 02:42:50;;;;;;;7.70;1.70;;;2.20;99.90;;;;;;5007294;28;20625;-80
2020/12/26 02:45:15;;;;;;;4.07;1.30;;;2.30;99.90;;;;;;5011123;28;20359;-79
2020/12/26 02:47:41;;;;;;;6.15;1.65;;;2.30;99.90;;;;;;5010378;28;20036;-78
2020/12/26 02:50:06;;;;;;;1.67;1.40;;;2.30;99.90;;;;;;5028362;28;20022;-79
2020/12/26 02:52:32;;;;;;;2.40;1.23;;;2.30;99.90;;;;;;5011136;28;20034;-79
2020/12/26 02:54:57;;;;;;;2.67;1.48;;;2.30;99.90;;;;;;5010483;28;20068;-79
2020/12/26 02:57:23;;;;;;;7.53;1.73;;;2.30;99.90;;;;;;5011155;28;20030;-79
2020/12/26 02:59:48;;;;;;;4.38;2.45;;;2.30;99.90;;;;;;5010441;28;20044;-78
2020/12/26 03:02:14;;;;;;;4.20;1.88;;;2.30;99.90;;;;;;5010312;28;20141;-80
2020/12/26 03:04:40;;;;;;;4.15;1.67;;;2.30;99.90;;;;;;5010726;28;20026;-79
2020/12/26 03:07:05;;;;;;;4.20;1.67;;;2.30;99.90;;;;;;5028287;28;20025;-79
2020/12/26 03:09:31;;;;;;;8.98;1.80;;;2.30;99.90;;;;;;5010551;28;20033;-79
2020/12/26 03:11:56;;;;;;;4.05;1.92;;;2.30;99.90;;;;;;5010912;28;20098;-80
2020/12/26 03:14:22;;;;;;;4.63;1.30;;;2.30;99.90;;;;;;5010784;28;20034;-79
2020/12/26 03:16:47;;;;;;;4.25;1.83;;;2.30;99.90;;;;;;5010246;28;20026;-79
2020/12/26 03:19:13;;;;;;;2.78;1.45;;;2.30;99.90;;;;;;5028122;28;20108;-80
2020/12/26 03:21:39;;;;;;;6.65;1.58;;;2.30;99.90;;;;;;5027771;28;20053;-80
2020/12/26 03:24:04;;;;;;;3.92;1.45;;;2.40;99.90;;;;;;5010457;28;20030;-79
2020/12/26 03:26:30;;;;;;;7.35;1.73;;;2.40;99.90;;;;;;5028334;28;20030;-79
2020/12/26 03:28:56;;;;;;;2.28;1.45;;;2.30;99.90;;;;;;5027779;28;20129;-80
2020/12/26 03:31:22;;;;;;;2.13;0.95;;;2.30;99.90;;;;;;5028059;28;20363;-81
2020/12/26 03:33:47;;;;;;;1.73;1.10;;;2.30;99.90;;;;;;5027994;28;20038;-79
2020/12/26 03:36:13;;;;;;;2.83;1.60;;;2.30;99.90;;;;;;5009436;28;20037;-79
2020/12/26 03:38:39;;;;;;;5.03;1.65;;;2.30;99.90;;;;;;5010286;28;20044;-80
2020/12/26 03:41:05;;;;;;;2.08;1.25;;;2.30;99.90;;;;;;5010117;28;20061;-79
2020/12/26 03:43:31;;;;;;;2.05;1.25;;;2.20;99.90;;;;;;5027301;28;20046;-78
2020/12/26 03:45:56;;;;;;;2.75;1.77;;;2.20;99.90;;;;;;5009798;28;20037;-79
2020/12/26 03:48:22;;;;;;;2.60;1.23;;;2.20;99.90;;;;;;5010238;28;20037;-80
2020/12/26 03:50:47;;;;;;;1.33;0.60;;;2.20;99.90;;;;;;5009784;28;20022;-78
2020/12/26 03:53:13;;;;;;;2.30;1.00;;;2.20;99.90;;;;;;5027634;28;20030;-78
2020/12/26 03:55:40;;;;;;;5.80;1.50;;;2.20;99.90;;;;;;5008586;28;20026;-78
2020/12/26 03:58:05;;;;;;;3.92;1.40;;;2.20;99.90;;;;;;5027307;28;20026;-79
2020/12/26 04:00:31;;;;;;;0.93;0.68;;;2.20;99.90;;;;;;5009763;28;20038;-77
2020/12/26 04:02:56;;;;;;;2.25;1.33;;;2.20;99.90;;;;;;5009731;28;20057;-80
2020/12/26 04:05:22;;;;;;;3.03;0.90;;;2.10;99.90;;;;;;5009609;28;20092;-79
2020/12/26 04:07:48;;;;;;;2.97;1.00;;;2.20;99.90;;;;;;5027567;28;20026;-78
2020/12/26 04:10:13;;;;;;;2.38;0.77;;;2.20;99.90;;;;;;5009143;28;20026;-79
2020/12/26 04:12:39;;;;;;;1.23;1.00;;;2.20;99.90;;;;;;5009436;28;20066;-79
2020/12/26 04:15:04;;;;;;;4.93;1.27;;;2.20;99.90;;;;;;5009459;28;20052;-79
2020/12/26 04:17:32;;;;;;;1.75;1.05;;;2.20;99.90;;;;;;5026945;28;20026;-80
2020/12/26 04:19:58;;;;;;;2.05;1.08;;;2.20;99.90;;;;;;5026992;28;20038;-77
2020/12/26 04:22:24;;;;;;;5.22;1.17;;;2.20;99.90;;;;;;5009684;28;20057;-78
2020/12/26 04:24:49;;;;;;;10.88;1.85;;;2.20;99.90;;;;;;5026318;28;20430;-78
2020/12/26 04:27:15;;;;;;;1.63;1.02;;;2.20;99.90;;;;;;5009371;28;20026;-77
2020/12/26 04:29:42;;;;;;;1.48;0.68;;;2.30;99.90;;;;;;5026743;28;20092;-80
2020/12/26 04:32:08;;;;;;;3.03;1.02;;;2.30;99.90;;;;;;5008812;28;20026;-78
2020/12/26 04:34:33;;;;;;;2.63;1.02;;;2.30;99.90;;;;;;5009092;28;20030;-79
2020/12/26 04:36:59;;;;;;;1.30;0.80;;;2.30;99.90;;;;;;5009614;28;20037;-79
2020/12/26 04:39:25;;;;;;;5.40;0.80;;;2.40;99.90;;;;;;5008859;28;20038;-79
2020/12/26 04:41:50;;;;;;;0.75;0.63;;;2.40;99.90;;;;;;5026849;28;20033;-79
2020/12/26 04:44:16;;;;;;;4.55;0.75;;;2.40;99.90;;;;;;5026386;28;20053;-78
2020/12/26 04:46:42;;;;;;;1.30;0.80;;;2.40;99.90;;;;;;5026374;28;20032;-79
2020/12/26 04:49:10;;;;;;;8.38;1.10;;;2.40;99.90;;;;;;5008972;28;20030;-79
2020/12/26 04:51:37;;;;;;;1.17;0.70;;;2.40;99.90;;;;;;5008468;28;20061;-79
2020/12/26 04:54:07;;;;;;;4.20;1.58;;;2.50;99.90;;;;;;5008462;28;20121;-79
2020/12/26 04:56:40;;;;;;;0.88;0.38;;;2.50;99.90;;;;;;5008693;28;20025;-79
2020/12/26 04:59:07;;;;;;;6.65;0.75;;;2.50;99.90;;;;;;5008398;28;20089;-79
2020/12/26 05:01:36;;;;;;;0.88;0.70;;;2.50;99.90;;;;;;5025963;28;20033;-80
2020/12/26 05:04:02;;;;;;;3.08;0.70;;;2.50;99.90;;;;;;5008688;28;20075;-81
2020/12/26 05:06:30;;;;;;;4.70;0.47;;;2.50;99.90;;;;;;5025353;28;20096;-79
2020/12/26 05:08:56;;;;;;;6.70;1.15;;;2.40;99.90;;;;;;5010516;28;20088;-79
2020/12/26 05:11:22;;;;;;;7.47;1.27;;;2.50;99.90;;;;;;5025864;28;20030;-79
2020/12/26 05:13:47;;;;;;;3.97;0.98;;;2.40;99.90;;;;;;5008369;28;20022;-79
2020/12/26 05:16:13;;;;;;;5.97;0.90;;;2.40;99.90;;;;;;5026147;28;20049;-79
2020/12/26 05:18:38;;;;;;;0.77;0.50;;;2.40;99.90;;;;;;5026030;28;20088;-78
2020/12/26 05:21:05;;;;;;;1.13;0.77;;;2.40;99.90;;;;;;5008221;28;20052;-79
2020/12/26 05:23:31;;;;;;;1.95;0.40;;;2.40;99.90;;;;;;5008381;28;20060;-79
2020/12/26 05:25:57;;;;;;;1.80;1.00;;;2.30;99.90;;;;;;5008326;28;20026;-78
2020/12/26 05:28:27;;;;;;;0.77;0.43;;;2.30;99.90;;;;;;5007945;28;20040;-78
2020/12/26 05:30:53;;;;;;;0.25;0.20;;;2.30;99.90;;;;;;5008486;28;20034;-79
2020/12/26 05:33:22;;;;;;;2.55;0.77;;;2.30;99.90;;;;;;5008134;28;20037;-78
2020/12/26 05:35:50;;;;;;;0.65;0.52;;;2.30;99.90;;;;;;5007643;28;20026;-78
2020/12/26 05:38:25;;;;;;;1.40;0.52;;;2.30;99.90;;;;;;5008124;28;20053;-80
2020/12/26 05:40:56;;;;;;;1.52;0.90;;;2.30;99.90;;;;;;5007883;28;20037;-79
2020/12/26 05:43:25;;;;;;;5.63;0.63;;;2.30;99.90;;;;;;5007669;28;20065;-79
2020/12/26 05:45:51;;;;;;;2.50;0.95;;;2.30;99.90;;;;;;5025419;28;20418;-79
2020/12/26 05:48:19;;;;;;;0.88;0.55;;;2.30;99.90;;;;;;5025484;28;20471;-80
2020/12/26 05:50:45;;;;;;;0.98;0.90;;;2.30;99.90;;;;;;5025020;28;20034;-80
2020/12/26 05:53:15;;;;;;;0.57;0.50;;;2.30;99.90;;;;;;5007839;28;20033;-79
2020/12/26 05:55:42;;;;;;;1.33;0.70;;;2.30;99.90;;;;;;5007363;28;20022;-79
2020/12/26 05:58:08;;;;;;;6.32;0.77;;;2.30;99.90;;;;;;5007681;28;20029;-80
2020/12/26 06:00:40;;;;;;;1.00;0.57;;;2.30;99.90;;;;;;5007429;28;20061;-80
2020/12/26 06:03:28;;;;;;;4.95;1.05;;;2.30;99.90;;;;;;5007394;28;20029;-80
2020/12/26 06:05:58;;;;;;;6.90;1.45;;;2.30;99.90;;;;;;5007838;28;20049;-78
2020/12/26 06:08:26;;;;;;;2.50;0.75;;;2.30;99.90;;;;;;5025440;28;20029;-79
2020/12/26 06:10:57;;;;;;;3.28;0.88;;;2.30;99.90;;;;;;5007094;28;20026;-79
2020/12/26 06:13:25;;;;;;;4.45;1.25;;;2.30;99.90;;;;;;5007535;28;20022;-79
2020/12/26 06:15:55;;;;;;;1.98;1.00;;;2.30;99.90;;;;;;5007102;28;20048;-80
2020/12/26 06:18:24;;;;;;;2.10;0.73;;;2.30;99.90;;;;;;5024651;28;20111;-80
2020/12/26 06:20:52;;;;;;;2.88;1.17;;;2.30;99.90;;;;;;5007369;28;20522;-80
2020/12/26 06:23:22;;;;;;;1.30;0.80;;;2.30;99.90;;;;;;5024571;28;20030;-79
2020/12/26 06:25:50;;;;;;;1.70;0.93;;;2.30;99.90;;;;;;5024899;28;20501;-78
2020/12/26 06:28:27;;;;;;;1.52;0.73;;;2.30;99.90;;;;;;5025149;28;20052;-79
2020/12/26 06:30:55;;;;;;;3.05;1.45;;;2.30;99.90;;;;;;5006869;28;20473;-79
2020/12/26 06:33:26;;;;;;;1.73;1.20;;;2.30;99.90;;;;;;5025436;28;20049;-79
2020/12/26 06:35:57;;;;;;;0.85;0.80;;;2.40;99.90;;;;;;5007586;28;20038;-80
2020/12/26 06:38:30;;;;;;;6.15;1.52;;;2.30;99.90;;;;;;5025171;28;20053;-79
2020/12/26 06:41:03;;;;;;;2.75;1.33;;;2.30;99.90;;;;;;5025516;28;20042;-80
2020/12/26 06:43:48;;;;;;;3.90;1.30;;;2.30;99.90;;;;;;5007182;28;20058;-80
2020/12/26 06:46:13;;;;;;;;;;;2.30;99.90;;;;;;5025213;28;20029;-78
2020/12/26 06:48:39;;;;;;;4.30;1.73;;;2.30;99.90;;;;;;5018365;28;19920;-81
2020/12/26 06:51:24;;;;;;;1.35;1.15;;;2.30;99.90;;;;;;4986104;28;20098;-80
2020/12/26 06:53:54;;;;;;;2.28;1.30;;;2.30;99.90;;;;;;4994405;28;20035;-79
2020/12/26 06:56:32;;;;;;;1.55;1.13;;;2.30;99.90;;;;;;4992002;28;20026;-80
2020/12/26 06:59:02;;;;;;;2.33;1.30;;;2.30;99.90;;;;;;4987244;28;20037;-79
2020/12/26 07:01:29;;;;;;;1.55;0.85;;;2.30;99.90;;;;;;4987545;28;20072;-79
2020/12/26 07:04:07;;;;;;;2.22;1.17;;;2.30;99.90;;;;;;4988362;28;20053;-78
2020/12/26 07:06:56;;;;;;;2.25;1.30;;;2.30;99.90;;;;;;4987403;28;20035;-79
2020/12/26 07:09:37;;;;;;;1.20;0.93;;;2.30;99.90;;;;;;4995059;28;20042;-83
2020/12/26 07:12:08;;;;;;;1.50;1.10;;;2.30;99.90;;;;;;4987055;28;20033;-80
2020/12/26 07:14:34;;;;;;;1.42;1.15;;;2.30;99.90;;;;;;4986631;28;20026;-81
2020/12/26 07:17:13;;;;;;;5.70;2.17;;;2.40;99.90;;;;;;4987424;28;20098;-79
2020/12/26 07:19:43;;;;;;;2.28;0.82;;;2.40;99.90;;;;;;4987078;28;20043;-80
2020/12/26 07:22:29;;;;;;;5.38;1.15;;;2.40;99.90;;;;;;4987519;28;20094;-82
2020/12/26 07:25:07;;;;;;;10.10;1.75;;;2.40;99.90;;;;;;4987485;28;20037;-80
2020/12/26 07:27:37;;;;;;;1.70;0.80;;;2.40;99.90;;;;;;4986912;28;20037;-80
2020/12/26 07:30:19;;;;;;;3.08;1.67;;;2.40;99.90;;;;;;4988148;28;20027;-83
2020/12/26 07:32:50;;;;;;;1.33;1.02;;;2.50;99.90;;;;;;4990950;28;20042;-79
2020/12/26 07:35:22;;;;;;;3.58;1.60;;;2.50;99.90;;;;;;4990912;28;20034;-78
2020/12/26 07:38:01;;;;;;;14.98;1.52;;;2.50;99.90;;;;;;4991220;28;20467;-76
2020/12/26 07:40:32;;;;;;;3.35;1.65;;;2.50;99.90;;;;;;5007864;28;20042;-78
2020/12/26 07:43:00;;;;;;;5.10;1.45;;;2.50;99.90;;;;;;5008053;28;20053;-78
2020/12/26 07:45:27;;;;;;;1.35;1.20;;;2.50;99.90;;;;;;5008137;28;20084;-77
2020/12/26 07:47:55;;;;;;;3.50;1.58;;;2.50;99.90;;;;;;4990484;28;20030;-79
2020/12/26 07:50:26;;;;;;;2.78;1.58;;;2.50;99.90;;;;;;4990428;28;20034;-76
2020/12/26 07:52:57;;;;;;;1.42;1.05;;;2.50;99.90;;;;;;5008151;28;20094;-79
2020/12/26 07:55:23;;;;;;;11.05;2.92;;;2.50;99.90;;;;;;5007975;28;20379;-78
2020/12/26 07:57:57;;;;;;;6.65;1.98;;;2.60;99.90;;;;;;4990547;28;20041;-78
2020/12/26 08:00:28;;;;;;;1.45;0.90;;;2.60;99.90;;;;;;4990339;28;20049;-80
2020/12/26 08:02:57;;;;;;;2.25;1.48;;;2.60;99.90;;;;;;5008161;28;20034;-78
2020/12/26 08:05:25;;;;;;;3.15;1.90;;;2.70;99.90;;;;;;4990235;28;20382;-78
2020/12/26 08:07:51;;;;;;;3.90;1.90;;;2.70;99.90;;;;;;4990142;28;20113;-79
2020/12/26 08:10:17;;;;;;;2.53;1.60;;;2.80;99.90;;;;;;4990136;28;20023;-81
2020/12/26 08:13:13;;;;;;;6.13;1.45;;;2.70;99.90;;;;;;4990146;28;20509;-78
2020/12/26 08:15:38;;;;;;;3.50;1.95;;;2.80;99.90;;;;;;5005727;28;20042;-80
2020/12/26 08:18:04;;;;;;;4.50;1.70;;;2.80;99.90;;;;;;4989894;28;20030;-79
2020/12/26 08:20:31;;;;;;;2.05;1.55;;;2.80;99.90;;;;;;5007631;28;20117;-78
2020/12/26 08:22:57;;;;;;;6.75;2.03;;;2.80;99.90;;;;;;5007236;28;20028;-78
2020/12/26 08:25:30;;;;;;;6.95;1.98;;;2.90;99.90;;;;;;5007438;28;20062;-81
2020/12/26 08:28:13;;;;;;;2.15;1.25;;;2.90;99.90;;;;;;4989979;28;20034;-79
2020/12/26 08:30:50;;;;;;;6.28;1.35;;;2.90;99.90;;;;;;4973459;28;20376;-80
2020/12/26 08:33:30;;;;;;;2.85;1.52;;;2.90;99.90;;;;;;4991551;28;20124;-81
2020/12/26 08:36:22;;;;;;;2.25;1.27;;;2.90;99.90;;;;;;5007377;28;20045;-78
2020/12/26 08:38:51;;;;;;;3.65;1.90;;;2.90;99.90;;;;;;4989498;28;20427;-79
2020/12/26 08:41:18;;;;;;;10.73;1.88;;;2.90;99.90;;;;;;5008251;28;20034;-81
2020/12/26 08:43:44;;;;;;;4.35;1.92;;;3.00;99.90;;;;;;5007964;28;20069;-80
2020/12/26 08:46:15;;;;;;;9.23;2.17;;;2.90;99.90;;;;;;4989777;28;20030;-80
2020/12/26 08:48:42;;;;;;;1.95;1.33;;;3.00;99.90;;;;;;4989384;28;20045;-81
2020/12/26 08:51:18;;;;;;;6.75;2.40;;;3.00;99.90;;;;;;4987483;28;20094;-79
2020/12/26 08:53:45;;;;;;;2.88;2.13;;;3.00;99.90;;;;;;4992647;28;20089;-78
2020/12/26 08:56:11;;;;;;;14.10;4.43;;;3.00;99.90;;;;;;4988875;28;20045;-79
2020/12/26 08:58:36;;;;;;;5.07;2.53;;;3.00;99.90;;;;;;4987845;28;20030;-79
2020/12/26 09:01:05;;;;;;;8.45;3.08;;;3.10;99.90;;;;;;4988245;28;20038;-84
2020/12/26 09:03:33;;;;;;;3.90;2.50;;;3.10;99.90;;;;;;4996110;28;20035;-80
2020/12/26 09:06:04;;;;;;;7.43;1.88;;;3.10;99.90;;;;;;4988073;28;20034;-84
2020/12/26 09:08:33;;;;;;;10.60;2.63;;;3.10;99.90;;;;;;4988201;28;20027;-84
2020/12/26 09:11:05;;;;;;;2.78;2.00;;;3.20;99.90;;;;;;4987586;28;20030;-82
2020/12/26 09:13:35;;;;;;;10.00;3.08;;;3.20;99.90;;;;;;4988105;28;20057;-80
2020/12/26 09:16:08;;;;;;;8.38;2.35;;;3.30;99.90;;;;;;5005827;28;20030;-79
2020/12/26 09:18:40;;;;;;;2.65;1.67;;;3.30;99.90;;;;;;5005163;28;20037;-78
2020/12/26 09:21:06;;;;;;;7.25;2.55;;;3.40;99.90;;;;;;5005689;28;20034;-78
2020/12/26 09:23:38;;;;;;;5.25;2.05;;;3.50;99.90;;;;;;5005196;28;20090;-78
2020/12/26 09:26:13;;;;;;;6.78;2.53;;;3.40;99.90;;;;;;4987508;28;20065;-80
2020/12/26 09:28:45;;;;;;;;;;;3.50;99.90;;;;;;4980250;28;20030;-80
2020/12/26 09:31:12;;;;;;;3.20;2.20;;;3.60;99.90;;;;;;4987458;28;19906;-82
2020/12/26 09:33:39;;;;;;;6.50;2.30;;;3.60;99.90;;;;;;5005437;28;20027;-79
2020/12/26 09:36:08;;;;;;;3.50;2.22;;;3.60;99.90;;;;;;5005110;28;20101;-79
2020/12/26 09:38:34;;;;;;;4.13;1.95;;;3.60;99.90;;;;;;5004934;28;20023;-81
2020/12/26 09:41:29;;;;;;;5.22;2.28;;;3.70;99.90;;;;;;4987901;28;20072;-79
2020/12/26 09:43:59;;;;;;;4.82;2.40;;;3.70;99.90;;;;;;4975055;28;20164;-79
2020/12/26 09:46:26;;;;;;;4.03;1.85;;;3.60;99.90;;;;;;5003842;28;20030;-80
2020/12/26 09:48:52;;;;;;;4.88;2.83;;;3.60;99.90;;;;;;4987599;28;20105;-79
2020/12/26 09:51:21;;;;;;;5.05;2.58;;;3.60;99.90;;;;;;4987218;28;20023;-78
2020/12/26 09:53:47;;;;;;;7.68;2.92;;;3.60;99.90;;;;;;4986914;28;20396;-76
2020/12/26 09:56:12;;;;;;;4.60;2.70;;;3.70;99.90;;;;;;5004652;28;20058;-77
2020/12/26 09:58:40;;;;;;;9.50;4.97;;;3.70;99.90;;;;;;5004489;28;20367;-82
2020/12/26 10:01:06;;;;;;;4.40;2.28;;;3.70;99.90;;;;;;4986838;28;20038;-77
2020/12/26 10:03:33;;;;;;;5.35;2.60;;;3.70;99.90;;;;;;4987321;28;20030;-81
2020/12/26 10:05:59;;;;;;;7.60;3.80;;;3.70;99.90;;;;;;4986811;28;20378;-79
2020/12/26 10:08:29;;;;;;;2.55;1.65;;;3.70;99.90;;;;;;4987573;28;20044;-78
2020/12/26 10:10:56;;;;;;;6.15;3.17;;;3.70;99.90;;;;;;4986549;28;20038;-79
2020/12/26 10:13:22;;;;;;;11.70;3.67;;;3.70;99.90;;;;;;5004761;28;20030;-79
2020/12/26 10:15:47;;;;;;;6.82;3.67;;;3.70;99.90;;;;;;4986960;28;20053;-80
2020/12/26 10:18:13;;;;;;;6.65;2.80;;;3.80;99.90;;;;;;4986820;28;20030;-79
2020/12/26 10:20:39;;;;;;;7.07;3.05;;;3.70;99.90;;;;;;4987254;28;20042;-78
2020/12/26 10:23:04;;;;;;;6.88;3.05;;;3.80;99.90;;;;;;5004664;28;20060;-78
2020/12/26 10:25:30;;;;;;;7.78;3.58;;;3.80;99.90;;;;;;5004439;28;20093;-80
2020/12/26 10:27:56;;;;;;;7.25;4.00;;;3.90;99.90;;;;;;5004382;28;20038;-78
2020/12/26 10:30:21;;;;;;;5.57;3.35;;;3.90;99.90;;;;;;4986999;28;20054;-79
2020/12/26 10:32:47;;;;;;;6.03;3.47;;;4.00;99.90;;;;;;4987179;28;20031;-77
2020/12/26 10:35:14;;;;;;;8.50;4.60;;;4.20;99.90;;;;;;5004827;28;20065;-79
2020/12/26 10:37:39;;;;;;;5.30;3.65;;;4.20;99.90;;;;;;4987362;28;20039;-78
2020/12/26 10:40:06;;;;;;;6.32;3.65;;;4.20;99.90;;;;;;4986939;28;20129;-80
2020/12/26 10:42:33;;;;;;;8.20;3.67;;;4.30;99.90;;;;;;5003860;28;20026;-80
2020/12/26 10:44:59;;;;;;;6.38;3.80;;;4.30;99.90;;;;;;4987189;28;20031;-80
2020/12/26 10:47:25;;;;;;;7.88;4.07;;;4.30;99.90;;;;;;5004310;28;20030;-78
2020/12/26 10:49:51;;;;;;;10.20;3.63;;;4.30;99.90;;;;;;4987129;28;20121;-78
2020/12/26 10:52:17;;;;;;;5.47;2.75;;;4.30;99.90;;;;;;4987027;28;20668;-78
2020/12/26 10:54:43;;;;;;;6.22;2.80;;;4.30;99.90;;;;;;5004411;28;20062;-80
2020/12/26 10:57:08;;;;;;;13.68;4.80;;;4.30;99.90;;;;;;4986881;28;20062;-80
2020/12/26 10:59:34;;;;;;;5.20;3.45;;;4.30;99.90;;;;;;4987091;28;20038;-81
2020/12/26 11:02:02;;;;;;;5.75;3.17;;;4.30;99.90;;;;;;4987016;28;20022;-79
2020/12/26 11:04:29;;;;;;;4.80;3.60;;;4.30;99.90;;;;;;4987018;28;20097;-80
2020/12/26 11:06:55;;;;;;;4.28;2.33;;;4.30;99.90;;;;;;4990740;28;20034;-80
2020/12/26 11:09:21;;;;;;;2.70;1.88;;;4.30;99.90;;;;;;5007225;28;20045;-80
2020/12/26 11:11:48;;;;;;;6.47;3.35;;;4.30;99.90;;;;;;4990470;28;20023;-78
2020/12/26 11:14:15;;;;;;;6.38;3.38;;;4.40;99.90;;;;;;5007779;28;20410;-78
2020/12/26 11:16:41;;;;;;;5.05;3.45;;;4.40;99.90;;;;;;4990008;28;20023;-78
2020/12/26 11:19:07;;;;;;;4.78;2.67;;;4.30;99.90;;;;;;4990531;28;20030;-79
2020/12/26 11:21:33;;;;;;;4.43;2.78;;;4.40;99.90;;;;;;4990224;28;20097;-79
2020/12/26 11:23:58;;;;;;;6.15;3.67;;;4.40;99.90;;;;;;4990476;28;20037;-82
2020/12/26 11:26:24;;;;;;;4.00;2.92;;;4.30;99.90;;;;;;5006010;28;20038;-80
2020/12/26 11:28:49;;;;;;;6.63;3.13;;;4.30;99.90;;;;;;4989554;28;20034;-78
2020/12/26 11:31:23;;;;;;;5.93;4.03;;;4.30;99.90;;;;;;4990024;28;20026;-77
2020/12/26 11:33:48;;;;;;;5.22;2.97;;;4.40;99.90;;;;;;5007775;28;20026;-78
2020/12/26 11:36:22;;;;;;;9.30;3.08;;;4.40;99.90;;;;;;5007800;28;20082;-81
2020/12/26 11:38:48;;;;;;;2.75;2.35;;;4.40;99.90;;;;;;4990621;28;20049;-80
2020/12/26 11:41:19;;;;;;;5.43;3.53;;;4.30;99.90;;;;;;4988155;28;20046;-81
2020/12/26 11:43:45;;;;;;;8.63;4.22;;;4.40;99.90;;;;;;5006846;28;20062;-81
2020/12/26 11:46:11;;;;;;;6.88;2.83;;;4.40;99.90;;;;;;4989515;28;20022;-82
2020/12/26 11:48:37;;;;;;;4.70;3.17;;;4.40;99.90;;;;;;5007248;28;20033;-81
2020/12/26 11:51:03;;;;;;;2.95;2.38;;;4.40;99.90;;;;;;4988273;28;20058;-81
2020/12/26 11:53:29;;;;;;;8.90;4.13;;;4.60;99.90;;;;;;4988745;28;20498;-82
2020/12/26 11:55:55;;;;;;;5.50;2.92;;;4.50;99.90;;;;;;4988847;28;20050;-83
2020/12/26 11:58:23;;;;;;;4.47;3.25;;;4.60;99.90;;;;;;4989418;28;20038;-85
2020/12/26 12:00:53;;;;;;;6.20;3.05;;;4.60;99.90;;;;;;4989004;28;20283;-82
2020/12/26 12:03:19;;;;;;;5.43;2.63;;;4.60;99.90;;;;;;4988887;28;20407;-83
2020/12/26 12:06:00;;;;;;;6.75;3.55;;;4.70;99.90;;;;;;5006507;28;20026;-84
2020/12/26 12:08:27;;;;;;;4.90;3.08;;;4.60;99.90;;;;;;4970391;28;20094;-82
2020/12/26 12:10:53;;;;;;;6.47;3.75;;;4.70;99.90;;;;;;4989555;28;20035;-80
2020/12/26 12:13:19;;;;;;;3.88;3.15;;;4.70;99.90;;;;;;4987487;28;20103;-81
2020/12/26 12:15:45;;;;;;;8.95;3.70;;;4.70;99.90;;;;;;4989652;28;20031;-83
2020/12/26 12:18:11;;;;;;;5.45;3.35;;;4.70;99.90;;;;;;4975896;28;20026;-80
2020/12/26 12:20:37;;;;;;;7.70;4.05;;;4.70;99.90;;;;;;4975274;28;20042;-84
2020/12/26 12:23:04;;;;;;;5.32;3.30;;;4.90;99.90;;;;;;4971876;28;20657;-82
2020/12/26 12:25:30;;;;;;;6.15;3.58;;;4.80;99.90;;;;;;4971824;28;20050;-79
2020/12/26 12:27:57;;;;;;;7.57;3.97;;;4.80;99.90;;;;;;4972689;28;20109;-84
2020/12/26 12:30:23;;;;;;;9.20;4.60;;;4.90;99.90;;;;;;4992486;28;20026;-81
2020/12/26 12:32:50;;;;;;;11.20;3.28;;;4.80;99.90;;;;;;4970707;28;20030;-79
2020/12/26 12:35:16;;;;;;;6.68;4.10;;;4.90;99.90;;;;;;4971281;28;20756;-80
2020/12/26 12:37:46;;;;;;;5.45;3.58;;;4.90;99.90;;;;;;4985569;28;20037;-83
2020/12/26 12:40:15;;;;;;;7.30;4.28;;;5.00;99.90;;;;;;4986615;28;20043;-81
2020/12/26 12:42:41;;;;;;;9.73;4.50;;;4.90;99.90;;;;;;4969749;28;20111;-81
2020/12/26 12:45:07;;;;;;;9.68;5.03;;;5.00;99.90;;;;;;4970452;28;20026;-78
2020/12/26 12:47:33;;;;;;;13.90;5.57;;;5.00;99.90;;;;;;4970150;28;20022;-78
2020/12/26 12:49:59;;;;;;;10.73;6.30;;;5.10;99.90;;;;;;4969949;28;20054;-82
2020/12/26 12:52:25;;;;;;;9.40;4.60;;;5.00;99.90;;;;;;4968573;28;20034;-83
2020/12/26 12:54:50;;;;;;;9.32;5.13;;;5.00;99.90;;;;;;4970741;28;20030;-79
2020/12/26 12:57:16;;;;;;;8.05;4.43;;;5.00;99.90;;;;;;4969227;28;20037;-79
2020/12/26 12:59:42;;;;;;;9.18;5.30;;;5.00;99.90;;;;;;4969435;28;20476;-80
2020/12/26 13:02:08;;;;;;;8.43;4.80;;;5.00;99.90;;;;;;4969549;28;20158;-84